Flight Briefing for CPX451

Departure Arrival
Chicago/Rockford International Airport (KRFD)
Click to view FAA NOTAMS
Miami International Airport (KMIA)
Click to view FAA NOTAMS
Departure Time Arrival Time
1330 UTC 1620 UTC
Aircraft Distance
B757-200SF 1160nm
Departure METAR Arrival METAR
KRFD 180623Z 35010KT 2SM -SN BR OVC041 M07/M09 A3004 RMK AO2 P0001 T10671089 KMIA 180553Z 14006KT 10SM FEW030 SCT050 SCT065 24/24 A3004 RMK AO2 SLP173 T02440239 10250 20239 58002
Suggested Route
BVT J89 ATL J45 OMN HILEY7


View recent IFR Routes data
Notes



Charts and Procedures

Charts for KRFD
No chart available
Charts for KMIA
No chart available

Ventusky Weather